sensor_id;sensor_type;location;lat;lon;timestamp;pressure;altitude;pressure_sealevel;temperature;humidity
53550;BME280;67273;52.914;-0.982;2023-08-20T00:00:43;101445.09;;;24.15;48.54
53550;BME280;67273;52.914;-0.982;2023-08-20T00:03:11;101450.56;;;24.15;48.32
53550;BME280;67273;52.914;-0.982;2023-08-20T00:05:38;101454.38;;;24.14;48.28
53550;BME280;67273;52.914;-0.982;2023-08-20T00:08:05;101447.25;;;24.13;48.65
53550;BME280;67273;52.914;-0.982;2023-08-20T00:10:31;101446.41;;;24.12;48.40
53550;BME280;67273;52.914;-0.982;2023-08-20T00:12:57;101447.25;;;24.13;48.46
53550;BME280;67273;52.914;-0.982;2023-08-20T00:15:23;101449.16;;;24.12;48.42
53550;BME280;67273;52.914;-0.982;2023-08-20T00:17:52;101445.59;;;24.12;48.21
53550;BME280;67273;52.914;-0.982;2023-08-20T00:20:18;101448.34;;;24.12;48.43
53550;BME280;67273;52.914;-0.982;2023-08-20T00:22:45;101453.81;;;24.12;48.56
53550;BME280;67273;52.914;-0.982;2023-08-20T00:25:14;101454.91;;;24.10;48.51
53550;BME280;67273;52.914;-0.982;2023-08-20T00:27:41;101460.38;;;24.10;48.56
53550;BME280;67273;52.914;-0.982;2023-08-20T00:30:07;101453.25;;;24.09;48.45
53550;BME280;67273;52.914;-0.982;2023-08-20T00:32:33;101457.91;;;24.09;48.34
53550;BME280;67273;52.914;-0.982;2023-08-20T00:34:59;101468.06;;;24.08;48.47
53550;BME280;67273;52.914;-0.982;2023-08-20T00:37:25;101467.22;;;24.08;48.39
53550;BME280;67273;52.914;-0.982;2023-08-20T00:39:51;101471.06;;;24.07;48.53
53550;BME280;67273;52.914;-0.982;2023-08-20T00:42:18;101472.97;;;24.06;48.38
53550;BME280;67273;52.914;-0.982;2023-08-20T00:44:44;101481.22;;;24.06;48.45
53550;BME280;67273;52.914;-0.982;2023-08-20T00:47:10;101481.22;;;24.06;48.40
53550;BME280;67273;52.914;-0.982;2023-08-20T00:49:39;101475.72;;;24.06;48.37
53550;BME280;67273;52.914;-0.982;2023-08-20T00:52:06;101479.53;;;24.05;48.42
53550;BME280;67273;52.914;-0.982;2023-08-20T00:54:34;101484.22;;;24.05;48.64
53550;BME280;67273;52.914;-0.982;2023-08-20T00:57:01;101490.53;;;24.05;48.41
53550;BME280;67273;52.914;-0.982;2023-08-20T00:59:29;101482.56;;;24.04;48.35
53550;BME280;67273;52.914;-0.982;2023-08-20T01:01:57;101485.31;;;24.04;48.52
53550;BME280;67273;52.914;-0.982;2023-08-20T01:04:24;101495.44;;;24.03;48.47
53550;BME280;67273;52.914;-0.982;2023-08-20T01:06:54;101491.88;;;24.03;48.49
53550;BME280;67273;52.914;-0.982;2023-08-20T01:09:34;101496.53;;;24.02;48.44
53550;BME280;67273;52.914;-0.982;2023-08-20T01:12:06;101489.38;;;24.01;48.57
53550;BME280;67273;52.914;-0.982;2023-08-20T01:14:33;101500.34;;;24.01;48.38
53550;BME280;67273;52.914;-0.982;2023-08-20T01:16:59;101505.84;;;24.01;48.58
53550;BME280;67273;52.914;-0.982;2023-08-20T01:19:25;101504.22;;;24.00;48.58
53550;BME280;67273;52.914;-0.982;2023-08-20T01:24:50;101501.47;;;24.00;48.49
53550;BME280;67273;52.914;-0.982;2023-08-20T01:27:30;101500.88;;;23.98;48.47
53550;BME280;67273;52.914;-0.982;2023-08-20T01:30:02;101500.03;;;23.98;48.63
53550;BME280;67273;52.914;-0.982;2023-08-20T01:32:30;101501.97;;;23.97;48.50
53550;BME280;67273;52.914;-0.982;2023-08-20T01:34:56;101505.53;;;23.98;48.61
53550;BME280;67273;52.914;-0.982;2023-08-20T01:37:23;101510.19;;;23.97;48.42
53550;BME280;67273;52.914;-0.982;2023-08-20T01:39:48;101512.13;;;23.97;48.57
53550;BME280;67273;52.914;-0.982;2023-08-20T01:42:14;101521.19;;;23.97;48.56
53550;BME280;67273;52.914;-0.982;2023-08-20T01:44:40;101517.63;;;23.97;48.64
53550;BME280;67273;52.914;-0.982;2023-08-20T01:47:09;101517.88;;;23.95;48.70
53550;BME280;67273;52.914;-0.982;2023-08-20T01:49:35;101512.38;;;23.95;48.46
53550;BME280;67273;52.914;-0.982;2023-08-20T01:52:02;101514.00;;;23.96;48.54
53550;BME280;67273;52.914;-0.982;2023-08-20T01:54:28;101510.44;;;23.96;48.52
53550;BME280;67273;52.914;-0.982;2023-08-20T01:56:57;101509.63;;;23.95;48.63
53550;BME280;67273;52.914;-0.982;2023-08-20T01:59:24;101505.22;;;23.94;48.64
53550;BME280;67273;52.914;-0.982;2023-08-20T02:01:52;101502.47;;;23.94;48.71
53550;BME280;67273;52.914;-0.982;2023-08-20T02:04:19;101510.69;;;23.94;48.57
53550;BME280;67273;52.914;-0.982;2023-08-20T02:06:45;101512.63;;;23.94;48.72
53550;BME280;67273;52.914;-0.982;2023-08-20T02:09:13;101516.19;;;23.94;48.71
53550;BME280;67273;52.914;-0.982;2023-08-20T02:11:38;101514.53;;;23.93;48.47
53550;BME280;67273;52.914;-0.982;2023-08-20T02:14:04;101514.53;;;23.93;48.48
53550;BME280;67273;52.914;-0.982;2023-08-20T02:16:30;101514.53;;;23.93;48.52
53550;BME280;67273;52.914;-0.982;2023-08-20T02:18:56;101515.63;;;23.92;48.49
53550;BME280;67273;52.914;-0.982;2023-08-20T02:21:23;101514.78;;;23.91;48.55
53550;BME280;67273;52.914;-0.982;2023-08-20T02:23:48;101518.38;;;23.92;48.64
53550;BME280;67273;52.914;-0.982;2023-08-20T02:26:14;101519.44;;;23.91;48.59
53550;BME280;67273;52.914;-0.982;2023-08-20T02:28:40;101521.34;;;23.90;48.71
53550;BME280;67273;52.914;-0.982;2023-08-20T02:31:07;101519.44;;;23.91;48.79
53550;BME280;67273;52.914;-0.982;2023-08-20T02:33:32;101530.41;;;23.91;48.74
53550;BME280;67273;52.914;-0.982;2023-08-20T02:36:01;101532.59;;;23.89;48.73
53550;BME280;67273;52.914;-0.982;2023-08-20T02:38:28;101535.34;;;23.89;48.56
53550;BME280;67273;52.914;-0.982;2023-08-20T02:40:54;101535.34;;;23.89;48.51
53550;BME280;67273;52.914;-0.982;2023-08-20T02:43:20;101547.41;;;23.88;48.67
53550;BME280;67273;52.914;-0.982;2023-08-20T02:45:46;101547.66;;;23.86;48.69
53550;BME280;67273;52.914;-0.982;2023-08-20T02:48:15;101548.47;;;23.87;48.64
53550;BME280;67273;52.914;-0.982;2023-08-20T02:50:41;101545.97;;;23.85;48.52
53550;BME280;67273;52.914;-0.982;2023-08-20T02:53:07;101552.28;;;23.86;48.70
53550;BME280;67273;52.914;-0.982;2023-08-20T02:55:36;101550.66;;;23.85;48.74
53550;BME280;67273;52.914;-0.982;2023-08-20T02:58:04;101550.66;;;23.85;48.24
53550;BME280;67273;52.914;-0.982;2023-08-20T03:00:33;101547.91;;;23.85;48.70
53550;BME280;67273;52.914;-0.982;2023-08-20T03:02:59;101550.66;;;23.85;48.71
53550;BME280;67273;52.914;-0.982;2023-08-20T03:05:25;101544.59;;;23.83;48.66
53550;BME280;67273;52.914;-0.982;2023-08-20T03:07:51;101554.47;;;23.84;48.62
53550;BME280;67273;52.914;-0.982;2023-08-20T03:10:17;101553.66;;;23.83;48.65
53550;BME280;67273;52.914;-0.982;2023-08-20T03:12:44;101551.97;;;23.82;48.78
53550;BME280;67273;52.914;-0.982;2023-08-20T03:15:10;101553.91;;;23.82;48.65
53550;BME280;67273;52.914;-0.982;2023-08-20T03:17:36;101562.13;;;23.82;48.65
53550;BME280;67273;52.914;-0.982;2023-08-20T03:20:02;101556.63;;;23.82;48.60
53550;BME280;67273;52.914;-0.982;2023-08-20T03:22:31;101560.47;;;23.81;48.64
53550;BME280;67273;52.914;-0.982;2023-08-20T03:24:59;101544.03;;;23.81;48.54
53550;BME280;67273;52.914;-0.982;2023-08-20T03:27:28;101544.03;;;23.81;48.55
53550;BME280;67273;52.914;-0.982;2023-08-20T03:29:56;101545.06;;;23.80;48.53
53550;BME280;67273;52.914;-0.982;2023-08-20T03:32:24;101540.63;;;23.79;48.64
53550;BME280;67273;52.914;-0.982;2023-08-20T03:34:51;101541.75;;;23.78;48.58
53550;BME280;67273;52.914;-0.982;2023-08-20T03:37:18;101551.63;;;23.79;48.63
53550;BME280;67273;52.914;-0.982;2023-08-20T03:39:45;101544.47;;;23.78;48.58
53550;BME280;67273;52.914;-0.982;2023-08-20T03:42:13;101554.63;;;23.77;48.58
53550;BME280;67273;52.914;-0.982;2023-08-20T03:44:39;101544.47;;;23.78;48.61
53550;BME280;67273;52.914;-0.982;2023-08-20T03:47:07;101549.41;;;23.76;48.52
53550;BME280;67273;52.914;-0.982;2023-08-20T03:49:32;101557.63;;;23.76;48.53
53550;BME280;67273;52.914;-0.982;2023-08-20T03:51:58;101557.63;;;23.76;48.47
53550;BME280;67273;52.914;-0.982;2023-08-20T03:54:28;101573.25;;;23.75;48.59
53550;BME280;67273;52.914;-0.982;2023-08-20T03:56:54;101571.59;;;23.74;48.60
53550;BME280;67273;52.914;-0.982;2023-08-20T03:59:20;101576.25;;;23.73;48.35
53550;BME280;67273;52.914;-0.982;2023-08-20T04:01:47;101577.09;;;23.74;48.46
53550;BME280;67273;52.914;-0.982;2023-08-20T04:04:16;101581.75;;;23.73;48.45
53550;BME280;67273;52.914;-0.982;2023-08-20T04:06:44;101591.06;;;23.72;48.54
53550;BME280;67273;52.914;-0.982;2023-08-20T04:09:11;101581.16;;;23.71;48.46
53550;BME280;67273;52.914;-0.982;2023-08-20T04:11:38;101589.13;;;23.73;48.52
53550;BME280;67273;52.914;-0.982;2023-08-20T04:14:05;101589.38;;;23.71;48.58
53550;BME280;67273;52.914;-0.982;2023-08-20T04:16:33;101592.13;;;23.71;48.53
53550;BME280;67273;52.914;-0.982;2023-08-20T04:19:01;101598.47;;;23.72;48.46
53550;BME280;67273;52.914;-0.982;2023-08-20T04:21:32;101593.47;;;23.69;48.45
53550;BME280;67273;52.914;-0.982;2023-08-20T04:23:58;101597.03;;;23.69;48.62
53550;BME280;67273;52.914;-0.982;2023-08-20T04:26:26;101597.03;;;23.69;48.39
53550;BME280;67273;52.914;-0.982;2023-08-20T04:28:55;101602.53;;;23.69;48.32
53550;BME280;67273;52.914;-0.982;2023-08-20T04:31:24;101600.88;;;23.68;48.48
53550;BME280;67273;52.914;-0.982;2023-08-20T04:34:01;101602.75;;;23.68;48.48
53550;BME280;67273;52.914;-0.982;2023-08-20T04:36:46;101592.88;;;23.67;48.40
53550;BME280;67273;52.914;-0.982;2023-08-20T04:39:12;101601.94;;;23.67;48.26
53550;BME280;67273;52.914;-0.982;2023-08-20T04:41:44;101606.59;;;23.67;48.42
53550;BME280;67273;52.914;-0.982;2023-08-20T04:44:15;101603.03;;;23.66;48.51
53550;BME280;67273;52.914;-0.982;2023-08-20T04:46:43;101601.38;;;23.65;48.49
53550;BME280;67273;52.914;-0.982;2023-08-20T04:49:10;101601.38;;;23.65;48.61
53550;BME280;67273;52.914;-0.982;2023-08-20T04:51:37;101606.84;;;23.65;48.39
53550;BME280;67273;52.914;-0.982;2023-08-20T04:54:05;101607.91;;;23.64;48.33
53550;BME280;67273;52.914;-0.982;2023-08-20T04:56:31;101615.09;;;23.65;48.57
53550;BME280;67273;52.914;-0.982;2023-08-20T04:58:59;101607.91;;;23.64;48.51
53550;BME280;67273;52.914;-0.982;2023-08-20T05:01:43;101606.28;;;23.63;48.56
53550;BME280;67273;52.914;-0.982;2023-08-20T05:04:11;101607.09;;;23.64;48.40
53550;BME280;67273;52.914;-0.982;2023-08-20T05:06:37;101609.03;;;23.63;48.60
53550;BME280;67273;52.914;-0.982;2023-08-20T05:09:04;101609.03;;;23.63;48.46
53550;BME280;67273;52.914;-0.982;2023-08-20T05:11:30;101618.31;;;23.62;48.49
53550;BME280;67273;52.914;-0.982;2023-08-20T05:13:58;101620.00;;;23.63;48.52
53550;BME280;67273;52.914;-0.982;2023-08-20T05:16:24;101619.41;;;23.61;48.49
53550;BME280;67273;52.914;-0.982;2023-08-20T05:18:50;101622.16;;;23.61;48.66
53550;BME280;67273;52.914;-0.982;2023-08-20T05:21:16;101618.56;;;23.61;48.73
53550;BME280;67273;52.914;-0.982;2023-08-20T05:23:42;101632.28;;;23.61;48.54
53550;BME280;67273;52.914;-0.982;2023-08-20T05:26:10;101631.47;;;23.60;48.57
53550;BME280;67273;52.914;-0.982;2023-08-20T05:28:36;101639.69;;;23.60;48.60
53550;BME280;67273;52.914;-0.982;2023-08-20T05:31:02;101645.16;;;23.60;48.63
53550;BME280;67273;52.914;-0.982;2023-08-20T05:33:30;101653.41;;;23.60;48.64
53550;BME280;67273;52.914;-0.982;2023-08-20T05:35:59;101653.41;;;23.60;48.61
53550;BME280;67273;52.914;-0.982;2023-08-20T05:38:27;101642.44;;;23.60;48.46
53550;BME280;67273;52.914;-0.982;2023-08-20T05:40:54;101652.59;;;23.60;48.71
53550;BME280;67273;52.914;-0.982;2023-08-20T05:43:21;101651.72;;;23.59;48.84
53550;BME280;67273;52.914;-0.982;2023-08-20T05:45:47;101657.22;;;23.59;48.70
53550;BME280;67273;52.914;-0.982;2023-08-20T05:48:18;101657.22;;;23.59;48.72
53550;BME280;67273;52.914;-0.982;2023-08-20T05:50:44;101655.56;;;23.58;48.83
53550;BME280;67273;52.914;-0.982;2023-08-20T05:53:11;101658.31;;;23.58;48.83
53550;BME280;67273;52.914;-0.982;2023-08-20T05:55:39;101668.19;;;23.59;48.88
53550;BME280;67273;52.914;-0.982;2023-08-20T05:58:06;101666.53;;;23.58;48.77
53550;BME280;67273;52.914;-0.982;2023-08-20T06:00:34;101666.53;;;23.58;48.77
53550;BME280;67273;52.914;-0.982;2023-08-20T06:03:04;101669.28;;;23.58;48.86
53550;BME280;67273;52.914;-0.982;2023-08-20T06:05:30;101665.72;;;23.58;48.95
53550;BME280;67273;52.914;-0.982;2023-08-20T06:07:58;101662.69;;;23.59;48.96
53550;BME280;67273;52.914;-0.982;2023-08-20T06:10:25;101663.78;;;23.58;49.00
53550;BME280;67273;52.914;-0.982;2023-08-20T06:12:50;101659.97;;;23.59;48.97
53550;BME280;67273;52.914;-0.982;2023-08-20T06:15:16;101656.38;;;23.59;49.07
53550;BME280;67273;52.914;-0.982;2023-08-20T06:17:51;101663.78;;;23.58;49.05
53550;BME280;67273;52.914;-0.982;2023-08-20T06:20:18;101666.53;;;23.58;49.18
53550;BME280;67273;52.914;-0.982;2023-08-20T06:22:44;101681.09;;;23.59;49.08
53550;BME280;67273;52.914;-0.982;2023-08-20T06:25:09;101682.19;;;23.58;49.14
53550;BME280;67273;52.914;-0.982;2023-08-20T06:27:35;101692.06;;;23.59;49.26
53550;BME280;67273;52.914;-0.982;2023-08-20T06:30:01;101690.13;;;23.59;49.25
53550;BME280;67273;52.914;-0.982;2023-08-20T06:32:27;101685.75;;;23.58;49.23
53550;BME280;67273;52.914;-0.982;2023-08-20T06:34:54;101692.06;;;23.59;49.26
53550;BME280;67273;52.914;-0.982;2023-08-20T06:37:19;101703.03;;;23.59;49.21
53550;BME280;67273;52.914;-0.982;2023-08-20T06:39:45;101697.53;;;23.59;49.28
53550;BME280;67273;52.914;-0.982;2023-08-20T06:42:11;101696.72;;;23.58;49.15
53550;BME280;67273;52.914;-0.982;2023-08-20T06:44:36;101696.47;;;23.60;49.21
53550;BME280;67273;52.914;-0.982;2023-08-20T06:47:02;101697.53;;;23.59;49.35
53550;BME280;67273;52.914;-0.982;2023-08-20T06:49:28;101704.94;;;23.58;49.38
53550;BME280;67273;52.914;-0.982;2023-08-20T06:51:55;101707.44;;;23.60;49.22
53550;BME280;67273;52.914;-0.982;2023-08-20T06:54:22;101700.28;;;23.59;49.26
53550;BME280;67273;52.914;-0.982;2023-08-20T06:56:47;101702.78;;;23.60;49.38
53550;BME280;67273;52.914;-0.982;2023-08-20T06:59:15;101700.03;;;23.60;49.33
53550;BME280;67273;52.914;-0.982;2023-08-20T07:01:42;101695.63;;;23.59;49.36
53550;BME280;67273;52.914;-0.982;2023-08-20T07:04:07;101698.38;;;23.59;49.42
53550;BME280;67273;52.914;-0.982;2023-08-20T07:06:33;101703.84;;;23.59;49.42
53550;BME280;67273;52.914;-0.982;2023-08-20T07:09:00;101706.59;;;23.59;49.36
53550;BME280;67273;52.914;-0.982;2023-08-20T07:11:26;101706.59;;;23.59;49.33
53550;BME280;67273;52.914;-0.982;2023-08-20T07:13:52;101706.59;;;23.59;49.43
53550;BME280;67273;52.914;-0.982;2023-08-20T07:16:18;101706.59;;;23.59;49.52
53550;BME280;67273;52.914;-0.982;2023-08-20T07:18:44;101705.78;;;23.59;49.34
53550;BME280;67273;52.914;-0.982;2023-08-20T07:21:10;101712.06;;;23.59;49.47
53550;BME280;67273;52.914;-0.982;2023-08-20T07:23:35;101721.16;;;23.60;49.42
53550;BME280;67273;52.914;-0.982;2023-08-20T07:26:07;101711.25;;;23.59;49.55
53550;BME280;67273;52.914;-0.982;2023-08-20T07:28:34;101714.00;;;23.59;49.48
53550;BME280;67273;52.914;-0.982;2023-08-20T07:31:18;101720.31;;;23.59;49.58
53550;BME280;67273;52.914;-0.982;2023-08-20T07:33:46;101723.06;;;23.59;49.52
53550;BME280;67273;52.914;-0.982;2023-08-20T07:36:12;101722.22;;;23.59;49.47
53550;BME280;67273;52.914;-0.982;2023-08-20T07:38:37;101711.25;;;23.59;49.48
53550;BME280;67273;52.914;-0.982;2023-08-20T07:41:08;101715.91;;;23.58;49.58
53550;BME280;67273;52.914;-0.982;2023-08-20T07:43:33;101718.66;;;23.58;49.57
53550;BME280;67273;52.914;-0.982;2023-08-20T07:45:59;101723.06;;;23.59;49.51
53550;BME280;67273;52.914;-0.982;2023-08-20T07:48:27;101718.41;;;23.60;49.62
53550;BME280;67273;52.914;-0.982;2023-08-20T07:50:52;101714.00;;;23.59;49.48
53550;BME280;67273;52.914;-0.982;2023-08-20T07:53:18;101716.50;;;23.60;49.57
53550;BME280;67273;52.914;-0.982;2023-08-20T07:55:44;101723.06;;;23.59;49.47
53550;BME280;67273;52.914;-0.982;2023-08-20T07:58:12;101727.72;;;23.59;49.53
53550;BME280;67273;52.914;-0.982;2023-08-20T08:00:37;101724.16;;;23.58;49.53
53550;BME280;67273;52.914;-0.982;2023-08-20T08:03:03;101722.22;;;23.59;49.41
53550;BME280;67273;52.914;-0.982;2023-08-20T08:05:29;101721.16;;;23.60;49.54
53550;BME280;67273;52.914;-0.982;2023-08-20T08:07:55;101724.97;;;23.59;49.47
53550;BME280;67273;52.914;-0.982;2023-08-20T08:10:20;101723.06;;;23.59;49.41
53550;BME280;67273;52.914;-0.982;2023-08-20T08:12:46;101725.78;;;23.59;49.62
53550;BME280;67273;52.914;-0.982;2023-08-20T08:15:13;101734.88;;;23.60;49.51
53550;BME280;67273;52.914;-0.982;2023-08-20T08:17:40;101731.28;;;23.59;49.53
53550;BME280;67273;52.914;-0.982;2023-08-20T08:20:06;101728.53;;;23.59;49.68
53550;BME280;67273;52.914;-0.982;2023-08-20T08:22:32;101734.03;;;23.59;49.49
53550;BME280;67273;52.914;-0.982;2023-08-20T08:24:57;101728.53;;;23.59;49.35
53550;BME280;67273;52.914;-0.982;2023-08-20T08:27:23;101727.47;;;23.60;49.62
53550;BME280;67273;52.914;-0.982;2023-08-20T08:29:50;101735.69;;;23.60;49.48
53550;BME280;67273;52.914;-0.982;2023-08-20T08:32:18;101742.00;;;23.61;49.51
53550;BME280;67273;52.914;-0.982;2023-08-20T08:34:43;101741.19;;;23.60;49.57
53550;BME280;67273;52.914;-0.982;2023-08-20T08:37:09;101735.69;;;23.60;49.67
53550;BME280;67273;52.914;-0.982;2023-08-20T08:39:36;101742.00;;;23.61;49.60
53550;BME280;67273;52.914;-0.982;2023-08-20T08:42:04;101743.94;;;23.60;49.58
53550;BME280;67273;52.914;-0.982;2023-08-20T08:44:33;101743.09;;;23.60;49.65
53550;BME280;67273;52.914;-0.982;2023-08-20T08:46:59;101747.50;;;23.61;49.60
53550;BME280;67273;52.914;-0.982;2023-08-20T08:49:28;101754.66;;;23.62;49.69
53550;BME280;67273;52.914;-0.982;2023-08-20T08:51:56;101757.16;;;23.63;49.83
53550;BME280;67273;52.914;-0.982;2023-08-20T08:54:23;101753.84;;;23.61;49.79
53550;BME280;67273;52.914;-0.982;2023-08-20T08:56:49;101750.00;;;23.62;49.85
53550;BME280;67273;52.914;-0.982;2023-08-20T08:59:15;101762.91;;;23.62;49.63
53550;BME280;67273;52.914;-0.982;2023-08-20T09:01:41;101759.31;;;23.61;49.80
53550;BME280;67273;52.914;-0.982;2023-08-20T09:04:07;101758.22;;;23.62;49.68
53550;BME280;67273;52.914;-0.982;2023-08-20T09:06:45;101761.78;;;23.63;49.78
53550;BME280;67273;52.914;-0.982;2023-08-20T09:09:12;101761.78;;;23.63;49.72
53550;BME280;67273;52.914;-0.982;2023-08-20T09:11:41;101759.31;;;23.61;49.81
53550;BME280;67273;52.914;-0.982;2023-08-20T09:14:20;101758.22;;;23.62;49.75
53550;BME280;67273;52.914;-0.982;2023-08-20T09:16:54;101749.75;;;23.64;49.77
53550;BME280;67273;52.914;-0.982;2023-08-20T09:19:23;101750.00;;;23.62;49.76
53550;BME280;67273;52.914;-0.982;2023-08-20T09:21:53;101759.91;;;23.63;49.62
53550;BME280;67273;52.914;-0.982;2023-08-20T09:24:32;101757.16;;;23.63;49.60
53550;BME280;67273;52.914;-0.982;2023-08-20T09:27:04;101749.75;;;23.64;49.61
53550;BME280;67273;52.914;-0.982;2023-08-20T09:29:38;101753.31;;;23.64;49.79
53550;BME280;67273;52.914;-0.982;2023-08-20T09:32:13;101751.69;;;23.63;49.74
53550;BME280;67273;52.914;-0.982;2023-08-20T09:34:41;101751.69;;;23.63;49.69
53550;BME280;67273;52.914;-0.982;2023-08-20T09:37:13;101764.31;;;23.64;49.79
53550;BME280;67273;52.914;-0.982;2023-08-20T09:39:40;101758.00;;;23.64;49.77
53550;BME280;67273;52.914;-0.982;2023-08-20T09:42:08;101753.31;;;23.64;49.67
53550;BME280;67273;52.914;-0.982;2023-08-20T09:44:37;101753.31;;;23.64;49.67
53550;BME280;67273;52.914;-0.982;2023-08-20T09:47:07;101745.09;;;23.64;49.80
53550;BME280;67273;52.914;-0.982;2023-08-20T09:49:37;101747.84;;;23.64;49.55
53550;BME280;67273;52.914;-0.982;2023-08-20T09:52:07;101755.00;;;23.65;49.50
53550;BME280;67273;52.914;-0.982;2023-08-20T09:54:47;101744.03;;;23.65;49.79
53550;BME280;67273;52.914;-0.982;2023-08-20T09:57:25;101744.84;;;23.66;49.71
53550;BME280;67273;52.914;-0.982;2023-08-20T09:59:54;101739.38;;;23.66;49.74
53550;BME280;67273;52.914;-0.982;2023-08-20T10:02:22;101739.38;;;23.66;49.63
53550;BME280;67273;52.914;-0.982;2023-08-20T10:04:52;101745.72;;;23.66;49.65
53550;BME280;67273;52.914;-0.982;2023-08-20T10:07:19;101746.53;;;23.67;49.53
53550;BME280;67273;52.914;-0.982;2023-08-20T10:09:49;101738.53;;;23.65;49.60
53550;BME280;67273;52.914;-0.982;2023-08-20T10:12:20;101742.97;;;23.66;49.58
53550;BME280;67273;52.914;-0.982;2023-08-20T10:14:51;101747.34;;;23.67;49.70
53550;BME280;67273;52.914;-0.982;2023-08-20T10:17:18;101741.88;;;23.67;49.65
53550;BME280;67273;52.914;-0.982;2023-08-20T10:19:46;101739.13;;;23.67;49.55
53550;BME280;67273;52.914;-0.982;2023-08-20T10:22:17;101742.69;;;23.68;49.66
53550;BME280;67273;52.914;-0.982;2023-08-20T10:24:54;101732.56;;;23.68;49.52
53550;BME280;67273;52.914;-0.982;2023-08-20T10:27:27;101739.69;;;23.69;49.57
53550;BME280;67273;52.914;-0.982;2023-08-20T10:29:57;101738.88;;;23.69;49.40
53550;BME280;67273;52.914;-0.982;2023-08-20T10:32:47;101743.53;;;23.68;49.64
53550;BME280;67273;52.914;-0.982;2023-08-20T10:35:17;101738.06;;;23.68;49.64
53550;BME280;67273;52.914;-0.982;2023-08-20T10:38:05;101732.56;;;23.68;49.47
53550;BME280;67273;52.914;-0.982;2023-08-20T10:40:53;101737.19;;;23.68;49.56
53550;BME280;67273;52.914;-0.982;2023-08-20T10:43:29;101736.97;;;23.69;49.83
53550;BME280;67273;52.914;-0.982;2023-08-20T10:46:10;101739.69;;;23.69;49.53
53550;BME280;67273;52.914;-0.982;2023-08-20T10:48:44;101737.81;;;23.70;49.49
53550;BME280;67273;52.914;-0.982;2023-08-20T10:51:16;101728.72;;;23.69;49.63
53550;BME280;67273;52.914;-0.982;2023-08-20T10:54:02;101742.19;;;23.71;49.62
53550;BME280;67273;52.914;-0.982;2023-08-20T10:56:43;101736.72;;;23.71;49.43
53550;BME280;67273;52.914;-0.982;2023-08-20T10:59:14;101737.53;;;23.71;49.30
53550;BME280;67273;52.914;-0.982;2023-08-20T11:01:44;101737.53;;;23.71;49.23
53550;BME280;67273;52.914;-0.982;2023-08-20T11:04:15;101739.22;;;23.72;49.36
53550;BME280;67273;52.914;-0.982;2023-08-20T11:06:44;101744.69;;;23.72;49.22
53550;BME280;67273;52.914;-0.982;2023-08-20T11:09:12;101733.72;;;23.72;49.39
53550;BME280;67273;52.914;-0.982;2023-08-20T11:11:42;101737.28;;;23.73;49.24
53550;BME280;67273;52.914;-0.982;2023-08-20T11:14:13;101733.72;;;23.72;49.18
53550;BME280;67273;52.914;-0.982;2023-08-20T11:16:43;101743.63;;;23.73;49.26
53550;BME280;67273;52.914;-0.982;2023-08-20T11:19:12;101740.91;;;23.73;49.27
53550;BME280;67273;52.914;-0.982;2023-08-20T11:21:41;101732.66;;;23.73;49.20
53550;BME280;67273;52.914;-0.982;2023-08-20T11:24:11;101737.06;;;23.75;49.28
53550;BME280;67273;52.914;-0.982;2023-08-20T11:26:42;101731.56;;;23.75;49.45
53550;BME280;67273;52.914;-0.982;2023-08-20T11:29:10;101731.56;;;23.75;49.23
53550;BME280;67273;52.914;-0.982;2023-08-20T11:31:39;101729.91;;;23.73;48.85
53550;BME280;67273;52.914;-0.982;2023-08-20T11:34:07;101727.16;;;23.73;48.97
53550;BME280;67273;52.914;-0.982;2023-08-20T11:36:38;101724.44;;;23.73;49.04
53550;BME280;67273;52.914;-0.982;2023-08-20T11:39:05;101724.44;;;23.73;48.83
53550;BME280;67273;52.914;-0.982;2023-08-20T11:41:36;101724.44;;;23.73;48.92
53550;BME280;67273;52.914;-0.982;2023-08-20T11:44:05;101718.94;;;23.73;48.76
53550;BME280;67273;52.914;-0.982;2023-08-20T11:46:33;101722.25;;;23.76;48.54
53550;BME280;67273;52.914;-0.982;2023-08-20T11:49:08;101725.00;;;23.76;48.57
53550;BME280;67273;52.914;-0.982;2023-08-20T11:51:38;101725.84;;;23.76;48.63
53550;BME280;67273;52.914;-0.982;2023-08-20T11:54:06;101732.38;;;23.75;48.58
53550;BME280;67273;52.914;-0.982;2023-08-20T11:56:34;101723.09;;;23.76;48.80
53550;BME280;67273;52.914;-0.982;2023-08-20T11:59:01;101733.25;;;23.76;48.83
53550;BME280;67273;52.914;-0.982;2023-08-20T12:01:35;101734.06;;;23.76;48.75
53550;BME280;67273;52.914;-0.982;2023-08-20T12:04:03;101727.75;;;23.76;48.79
53550;BME280;67273;52.914;-0.982;2023-08-20T12:06:29;101728.56;;;23.76;48.81
53550;BME280;67273;52.914;-0.982;2023-08-20T12:08:56;101727.50;;;23.77;48.79
53550;BME280;67273;52.914;-0.982;2023-08-20T12:11:24;101722.25;;;23.76;48.94
53550;BME280;67273;52.914;-0.982;2023-08-20T12:13:50;101723.91;;;23.77;48.63
53550;BME280;67273;52.914;-0.982;2023-08-20T12:16:16;101718.41;;;23.77;48.70
53550;BME280;67273;52.914;-0.982;2023-08-20T12:18:45;101723.91;;;23.77;48.87
53550;BME280;67273;52.914;-0.982;2023-08-20T12:21:11;101725.84;;;23.76;48.80
53550;BME280;67273;52.914;-0.982;2023-08-20T12:23:37;101725.59;;;23.78;48.78
53550;BME280;67273;52.914;-0.982;2023-08-20T12:26:02;101722.03;;;23.77;48.72
53550;BME280;67273;52.914;-0.982;2023-08-20T12:28:29;101719.28;;;23.77;48.80
53550;BME280;67273;52.914;-0.982;2023-08-20T12:30:55;101728.34;;;23.78;48.74
53550;BME280;67273;52.914;-0.982;2023-08-20T12:33:20;101720.09;;;23.78;48.90
53550;BME280;67273;52.914;-0.982;2023-08-20T12:35:47;101709.13;;;23.78;48.72
53550;BME280;67273;52.914;-0.982;2023-08-20T12:38:13;101721.75;;;23.79;48.61
53550;BME280;67273;52.914;-0.982;2023-08-20T12:40:39;101711.88;;;23.78;48.89
53550;BME280;67273;52.914;-0.982;2023-08-20T12:43:04;101713.50;;;23.79;48.83
53550;BME280;67273;52.914;-0.982;2023-08-20T12:45:30;101717.09;;;23.79;48.79
53550;BME280;67273;52.914;-0.982;2023-08-20T12:47:56;101716.25;;;23.79;48.85